Sligo, Missouri
Current Conditions -  °F | °C
As of 10:58 PM on Monday 22 Dec 2014 (Local Time) from KTBN Reporting Station
Broken Clouds Broken Clouds  
Wind Chill: 41°   Ceiling: 3200
Heat Index: 45°   Visibility: 10mi
Dew Point: 45°   Wind: 7mph
Humidity: 100%   Direction: NA
Pressure: 29.58"   Gusts: NA
Location:  37.5023°N, 91.4546°W
Report Text: KTBN 230458Z AUTO VRB06KT 10SM FEW019 SCT027 BKN032 07/07 A2958 RMK AO2 SLP022 T00700070
Loading
Personal Weather Stations






























Interactive Weather Map New forecast layout! Learn more

10-Day Weather Forecast

Advertisements
Track Severe Weather on mobile